Time;durP1;ratioP1;P1;durP2;ratioP2;P2;SDS_P1;SDS_P2;PMS_P1;PMS_P2;Temp;Humidity;BMP_temperature;BMP_pressure;BME280_temperature;BME280_humidity;BME280_pressure;Samples;Min_cycle;Max_cycle;Signal;HPM_P1;HPM_P2
2022/03/22 00:01:43;;;;;;;85.10;29.60;;;;;;;0.80;52.34;101510.17;103575;1300;24257;-27
2022/03/22 00:04:08;;;;;;;98.00;29.60;;;;;;;0.78;52.39;101507.41;103494;1302;24213;-26
2022/03/22 00:06:34;;;;;;;62.20;23.00;;;;;;;0.69;54.90;101507.91;103444;1301;24358;-29
2022/03/22 00:09:00;;;;;;;73.70;27.90;;;;;;;0.56;54.59;101507.03;103505;1300;22591;-26
2022/03/22 00:11:25;;;;;;;60.90;24.40;;;;;;;0.36;53.74;101507.72;103564;1300;24290;-28
2022/03/22 00:13:51;;;;;;;95.60;30.20;;;;;;;0.10;54.81;101504.66;103547;1302;22664;-29
2022/03/22 00:16:17;;;;;;;85.70;28.60;;;;;;;-0.12;58.50;101502.20;103509;1302;24284;-29
2022/03/22 00:18:43;;;;;;;90.60;28.80;;;;;;;-0.22;57.41;101499.89;103517;1300;24304;-25
2022/03/22 00:21:08;;;;;;;90.30;28.40;;;;;;;-0.25;55.43;101498.31;103522;1300;24240;-30
2022/03/22 00:23:34;;;;;;;54.30;21.20;;;;;;;-0.21;55.31;101500.89;103587;1300;24217;-25
2022/03/22 00:26:01;;;;;;;80.00;32.40;;;;;;;-0.14;55.25;101498.27;103572;1300;24318;-26
2022/03/22 00:28:27;;;;;;;113.50;38.10;;;;;;;-0.06;55.26;101497.52;103556;1300;22725;-28
2022/03/22 00:30:52;;;;;;;71.90;33.80;;;;;;;0.02;55.52;101494.70;103488;1300;24272;-29
2022/03/22 00:33:18;;;;;;;68.90;31.90;;;;;;;0.11;55.52;101492.77;103562;1300;24231;-26
2022/03/22 00:35:44;;;;;;;67.60;29.90;;;;;;;0.20;55.54;101491.98;103523;1302;24257;-29
2022/03/22 00:38:12;;;;;;;56.00;26.30;;;;;;;0.27;55.70;101490.23;103478;1302;24451;-26
2022/03/22 00:40:38;;;;;;;64.30;28.10;;;;;;;0.32;55.44;101492.39;103608;1300;24247;-29
2022/03/22 00:43:04;;;;;;;62.80;26.30;;;;;;;0.36;55.57;101494.48;103555;1300;24271;-29
2022/03/22 00:45:32;;;;;;;84.30;36.30;;;;;;;0.41;55.71;101487.73;103525;1300;24214;-29
2022/03/22 00:47:58;;;;;;;63.80;29.60;;;;;;;0.52;55.65;101486.44;103580;1300;24220;-25
2022/03/22 00:50:27;;;;;;;69.60;24.40;;;;;;;0.59;55.29;101486.60;103530;1300;24211;-29
2022/03/22 00:52:53;;;;;;;66.10;25.40;;;;;;;0.54;54.98;101484.74;103607;1299;25440;-29
2022/03/22 00:55:23;;;;;;;67.40;23.80;;;;;;;0.42;57.03;101486.44;103603;1300;24302;-29
2022/03/22 00:57:49;;;;;;;66.50;27.20;;;;;;;0.28;56.18;101485.58;103601;1300;24304;-26
2022/03/22 01:00:15;;;;;;;85.80;30.60;;;;;;;0.16;55.45;101485.85;103583;1300;24210;-26
2022/03/22 01:02:42;;;;;;;69.70;31.00;;;;;;;0.07;56.04;101487.20;103535;1300;24329;-26
2022/03/22 01:05:11;;;;;;;64.90;26.30;;;;;;;-0.02;56.48;101487.09;103533;1300;24183;-26
2022/03/22 01:07:38;;;;;;;63.00;27.20;;;;;;;-0.05;56.43;101484.59;103625;1300;22513;-29
2022/03/22 01:10:05;;;;;;;55.80;22.40;;;;;;;-0.06;56.31;101480.96;103585;1300;24354;-26
2022/03/22 01:12:32;;;;;;;57.20;24.60;;;;;;;-0.01;56.52;101481.42;103516;1301;24295;-29
2022/03/22 01:14:58;;;;;;;51.50;22.40;;;;;;;0.08;56.48;101480.26;103550;1300;22890;-26
2022/03/22 01:17:24;;;;;;;57.40;28.70;;;;;;;0.14;56.26;101479.94;103546;1300;23961;-26
2022/03/22 01:19:50;;;;;;;72.00;30.40;;;;;;;0.20;55.98;101478.56;103580;1300;24481;-29
2022/03/22 01:22:16;;;;;;;55.90;23.90;;;;;;;0.29;56.06;101476.71;103500;1300;24272;-29
2022/03/22 01:24:43;;;;;;;49.30;18.80;;;;;;;0.39;55.62;101474.23;103555;1300;24291;-30
2022/03/22 01:27:10;;;;;;;48.40;20.60;;;;;;;0.46;55.11;101474.23;103585;1300;24490;-29
2022/03/22 01:29:37;;;;;;;47.50;20.40;;;;;;;0.53;54.90;101471.40;103517;1301;24261;-30
2022/03/22 01:32:04;;;;;;;57.50;20.10;;;;;;;0.65;54.61;101471.48;103591;1300;24353;-27
2022/03/22 01:34:31;;;;;;;64.30;21.20;;;;;;;0.72;54.35;101467.41;103587;1300;24211;-26
2022/03/22 01:36:56;;;;;;;77.30;26.10;;;;;;;0.76;54.40;101466.13;103476;1300;24304;-27
2022/03/22 01:39:22;;;;;;;61.00;22.50;;;;;;;0.75;54.36;101465.14;103527;1302;24252;-26
2022/03/22 01:41:48;;;;;;;76.10;33.10;;;;;;;0.70;54.71;101471.38;103493;1300;24180;-30
2022/03/22 01:44:14;;;;;;;78.20;26.50;;;;;;;0.61;54.67;101468.34;103457;1301;22910;-25
2022/03/22 01:46:40;;;;;;;70.30;24.70;;;;;;;0.50;55.46;101465.56;103589;1300;24400;-30
2022/03/22 01:49:06;;;;;;;66.80;18.20;;;;;;;0.37;56.06;101464.67;103531;1299;24243;-29
2022/03/22 01:51:32;;;;;;;62.70;21.40;;;;;;;0.27;56.40;101463.45;103546;1302;24269;-25
2022/03/22 01:53:59;;;;;;;55.70;20.60;;;;;;;0.11;56.57;101463.56;103646;1300;23832;-28
2022/03/22 01:56:25;;;;;;;42.30;18.40;;;;;;;-0.15;56.88;101463.80;103515;1302;24282;-25
2022/03/22 01:58:50;;;;;;;46.50;18.20;;;;;;;-0.30;57.64;101463.30;103555;1300;24264;-28
2022/03/22 02:06:15;;;;;;;65.90;21.40;;;;;;;-0.55;59.74;101456.98;103680;1300;22498;-30
2022/03/22 02:08:41;;;;;;;73.90;25.20;;;;;;;-0.60;58.67;101453.89;103522;1300;22798;-30
2022/03/22 02:11:07;;;;;;;52.80;21.20;;;;;;;-0.69;57.78;101452.58;103656;1299;24189;-28
2022/03/22 02:13:34;;;;;;;62.70;21.30;;;;;;;-0.75;57.03;101451.80;103522;1302;24221;-30
2022/03/22 02:16:01;;;;;;;49.50;21.50;;;;;;;-0.74;57.14;101450.35;103682;1300;24224;-26
2022/03/22 02:18:27;;;;;;;55.40;23.80;;;;;;;-0.63;57.92;101449.66;103572;1300;24215;-29
2022/03/22 02:20:53;;;;;;;50.50;21.10;;;;;;;-0.50;58.30;101448.13;103660;1299;24466;-25
2022/03/22 02:23:21;;;;;;;62.20;22.70;;;;;;;-0.43;58.25;101448.17;103578;1300;24245;-26
2022/03/22 02:25:49;;;;;;;57.00;21.60;;;;;;;-0.38;58.41;101452.63;103658;1299;24425;-28
2022/03/22 02:28:16;;;;;;;48.40;17.50;;;;;;;-0.37;58.36;101451.21;103597;1300;24363;-28
2022/03/22 02:30:45;;;;;;;56.30;19.50;;;;;;;-0.39;58.49;101453.58;103550;1300;24263;-28
2022/03/22 02:33:11;;;;;;;46.70;17.90;;;;;;;-0.39;59.08;101453.41;103681;1300;23153;-29
2022/03/22 02:35:38;;;;;;;42.30;19.10;;;;;;;-0.38;59.84;101451.95;103584;1300;22903;-26
2022/03/22 02:38:04;;;;;;;49.30;18.90;;;;;;;-0.39;60.22;101451.48;103696;1299;24237;-26
2022/03/22 02:40:30;;;;;;;45.40;21.50;;;;;;;-0.47;59.78;101451.31;103651;1299;24257;-30
2022/03/22 02:42:59;;;;;;;34.30;15.90;;;;;;;-0.57;61.05;101449.89;103510;1302;24371;-29
2022/03/22 02:45:25;;;;;;;38.60;14.50;;;;;;;-0.63;59.63;101451.24;103696;1300;22598;-29
2022/03/22 02:47:50;;;;;;;53.40;18.20;;;;;;;-0.71;61.20;101455.31;103495;1300;24234;-29
2022/03/22 02:50:16;;;;;;;59.30;22.20;;;;;;;-0.81;62.97;101454.20;103570;1300;24219;-26
2022/03/22 02:52:43;;;;;;;58.40;23.20;;;;;;;-0.91;61.78;101455.36;103678;1299;24202;-26
2022/03/22 02:55:09;;;;;;;51.60;20.90;;;;;;;-1.00;60.48;101453.84;103606;1299;24218;-26
2022/03/22 02:57:36;;;;;;;90.90;51.20;;;;;;;-1.05;60.70;101448.10;103561;1300;24218;-29
2022/03/22 03:00:04;;;;;;;54.50;22.90;;;;;;;-1.07;61.66;101451.05;103600;1300;24298;-26
2022/03/22 03:02:30;;;;;;;76.30;23.40;;;;;;;-1.08;61.13;101453.02;103677;1299;24602;-29
2022/03/22 03:04:56;;;;;;;63.00;22.50;;;;;;;-1.08;61.61;101453.02;103655;1299;24345;-26
2022/03/22 03:07:22;;;;;;;58.70;19.80;;;;;;;-1.07;61.99;101454.55;103536;1300;24259;-25
2022/03/22 03:09:48;;;;;;;51.00;21.90;;;;;;;-1.10;61.50;101451.91;103549;1300;24457;-26
2022/03/22 03:12:14;;;;;;;1253.50;381.10;;;;;;;-1.12;61.93;101456.39;103544;1300;24222;-25
2022/03/22 03:14:40;;;;;;;433.90;97.40;;;;;;;-1.17;61.80;101461.69;103575;1302;23127;-26
2022/03/22 03:17:07;;;;;;;306.90;85.90;;;;;;;-1.19;62.77;101455.47;103683;1300;24421;-29
2022/03/22 03:19:32;;;;;;;448.50;118.80;;;;;;;-1.17;63.92;101456.59;103732;1299;24230;-29
2022/03/22 03:21:58;;;;;;;393.50;110.70;;;;;;;-1.14;63.75;101457.67;103682;1299;24335;-26
2022/03/22 03:24:24;;;;;;;326.10;91.30;;;;;;;-1.18;62.69;101453.31;103589;1299;24250;-29
2022/03/22 03:26:50;;;;;;;317.20;86.90;;;;;;;-1.25;64.34;101455.36;103587;1300;24349;-28
2022/03/22 03:29:16;;;;;;;364.60;108.50;;;;;;;-1.26;65.19;101457.02;103674;1300;24233;-26
2022/03/22 03:31:41;;;;;;;359.00;100.80;;;;;;;-1.23;63.67;101458.08;103636;1300;24245;-28
2022/03/22 03:34:07;;;;;;;272.00;77.10;;;;;;;-1.23;63.16;101456.67;103643;1300;24265;-26
2022/03/22 03:36:34;;;;;;;83.70;26.80;;;;;;;-1.30;61.94;101459.66;103619;1299;22511;-29
2022/03/22 03:39:01;;;;;;;83.20;30.00;;;;;;;-1.41;63.90;101458.20;103686;1300;24368;-28
2022/03/22 03:43:57;;;;;;;92.20;26.70;;;;;;;-1.56;64.55;101463.83;103552;1300;24275;-25
2022/03/22 03:48:52;;;;;;;50.50;19.70;;;;;;;-1.74;66.88;101460.41;103598;1300;24230;-27
2022/03/22 03:51:19;;;;;;;62.30;18.50;;;;;;;-1.74;71.02;101459.50;103696;1299;24243;-27
2022/03/22 03:53:45;;;;;;;47.40;17.10;;;;;;;-1.73;67.38;101459.66;103671;1300;24371;-26
2022/03/22 03:56:11;;;;;;;39.30;16.30;;;;;;;-1.76;65.14;101460.85;103551;1302;24256;-26
2022/03/22 03:58:36;;;;;;;57.40;18.30;;;;;;;-1.77;66.63;101458.25;103675;1300;24257;-27
2022/03/22 04:01:03;;;;;;;49.90;19.50;;;;;;;-1.79;65.83;101466.23;103592;1300;24364;-29
2022/03/22 04:03:29;;;;;;;45.30;18.20;;;;;;;-1.78;64.96;101465.31;103730;1300;24252;-28
2022/03/22 04:05:54;;;;;;;38.10;16.30;;;;;;;-1.79;65.96;101466.08;103514;1301;24238;-29
2022/03/22 04:08:20;;;;;;;52.90;18.00;;;;;;;-1.80;65.81;101468.21;103621;1300;24389;-26
2022/03/22 04:10:46;;;;;;;41.90;16.00;;;;;;;-1.81;66.02;101472.11;103569;1300;24257;-25
2022/03/22 04:13:12;;;;;;;53.40;17.90;;;;;;;-1.79;65.85;101472.93;102860;1302;815747;-25
2022/03/22 04:15:38;;;;;;;52.00;19.10;;;;;;;-1.76;66.06;101472.27;103597;1300;24470;-25
2022/03/22 04:18:04;;;;;;;84.60;35.50;;;;;;;-1.76;64.80;101474.54;103627;1299;24507;-24
2022/03/22 04:20:30;;;;;;;69.20;26.00;;;;;;;-1.80;64.81;101472.62;103662;1300;22927;-27
2022/03/22 04:22:56;;;;;;;369.40;119.30;;;;;;;-1.83;64.21;101472.91;103693;1299;24250;-27
2022/03/22 04:25:22;;;;;;;111.80;35.60;;;;;;;-1.87;64.23;101477.45;103672;1297;24428;-25
2022/03/22 04:32:45;;;;;;;47.10;19.10;;;;;;;-1.94;64.16;101480.76;103749;1299;24209;-26
2022/03/22 04:35:14;;;;;;;36.90;16.00;;;;;;;-1.92;65.09;101481.34;103694;1300;24218;-26
2022/03/22 04:37:41;;;;;;;45.40;17.80;;;;;;;-1.90;67.80;101479.87;103722;1299;23924;-26
2022/03/22 04:40:07;;;;;;;36.80;16.90;;;;;;;-1.88;68.14;101482.08;103504;1300;24406;-29
2022/03/22 04:42:34;;;;;;;39.90;15.60;;;;;;;-1.88;67.44;101480.16;103717;1299;24249;-26
2022/03/22 04:45:00;;;;;;;35.80;14.10;;;;;;;-1.91;66.22;101483.59;103502;1300;25375;-29
2022/03/22 04:47:26;;;;;;;35.20;16.50;;;;;;;-1.96;66.13;101481.37;103639;1299;24218;-26
2022/03/22 04:49:53;;;;;;;47.80;18.20;;;;;;;-2.01;66.46;101483.31;103543;1300;24359;-26
2022/03/22 04:57:17;;;;;;;47.30;20.50;;;;;;;-1.94;68.42;101489.70;103703;1300;24664;-29
2022/03/22 04:59:43;;;;;;;60.70;23.10;;;;;;;-1.81;67.43;101490.36;103666;1299;24323;-29
2022/03/22 05:02:10;;;;;;;56.00;18.50;;;;;;;-1.58;68.10;101489.56;103623;1300;22628;-26
2022/03/22 05:04:36;;;;;;;45.60;17.80;;;;;;;-1.34;66.87;101487.06;103508;1302;22646;-29
2022/03/22 05:07:02;;;;;;;64.20;21.40;;;;;;;-1.10;66.41;101487.38;103622;1299;24367;-29
2022/03/22 05:09:28;;;;;;;63.10;23.60;;;;;;;-0.86;68.19;101489.64;103635;1299;24257;-25
2022/03/22 05:11:55;;;;;;;53.20;21.80;;;;;;;-0.62;69.24;101490.21;103686;1299;24314;-30
2022/03/22 05:14:22;;;;;;;78.40;23.10;;;;;;;-0.49;68.55;101486.42;103624;1302;24196;-26
2022/03/22 05:16:48;;;;;;;44.60;20.20;;;;;;;-0.48;69.32;101488.66;103701;1300;24297;-29
2022/03/22 05:19:13;;;;;;;40.70;14.40;;;;;;;-0.48;68.06;101488.87;103720;1299;24410;-27
2022/03/22 05:21:39;;;;;;;59.70;20.40;;;;;;;-0.57;66.61;101490.00;103437;1302;24279;-26
2022/03/22 05:24:06;;;;;;;61.70;22.70;;;;;;;-0.72;65.15;101491.42;103609;1302;24215;-29
2022/03/22 05:26:32;;;;;;;49.60;22.10;;;;;;;-0.87;65.08;101495.63;103534;1302;24426;-29
2022/03/22 05:28:58;;;;;;;88.40;32.50;;;;;;;-0.98;65.62;101493.34;103744;1300;24325;-28
2022/03/22 05:31:23;;;;;;;57.40;24.40;;;;;;;-1.09;66.23;101498.05;103703;1300;24209;-29
2022/03/22 05:33:49;;;;;;;55.20;22.80;;;;;;;-1.21;66.65;101494.74;103709;1300;24338;-30
2022/03/22 05:36:15;;;;;;;53.90;21.00;;;;;;;-1.25;66.76;101496.70;103533;1303;24301;-25
2022/03/22 05:38:41;;;;;;;53.90;20.50;;;;;;;-1.31;66.49;101495.02;103725;1300;24212;-26
2022/03/22 05:41:08;;;;;;;56.90;21.20;;;;;;;-1.31;66.55;101502.42;103573;1300;24454;-25
2022/03/22 05:43:35;;;;;;;47.20;19.10;;;;;;;-1.28;66.64;101501.04;103706;1300;24214;-29
2022/03/22 05:46:02;;;;;;;42.60;16.70;;;;;;;-1.17;68.30;101499.67;103565;1300;24448;-28
2022/03/22 05:48:29;;;;;;;39.60;16.60;;;;;;;-1.04;67.70;101498.88;103599;1300;24282;-27
2022/03/22 05:50:55;;;;;;;67.90;21.70;;;;;;;-0.90;69.17;101499.50;103609;1300;22619;-28
2022/03/22 05:53:21;;;;;;;65.20;23.10;;;;;;;-0.84;68.08;101502.38;103573;1300;24263;-28
2022/03/22 05:55:46;;;;;;;52.50;19.60;;;;;;;-0.83;67.72;101504.80;103568;1300;22516;-27
2022/03/22 05:58:12;;;;;;;59.40;20.60;;;;;;;-0.79;67.71;101505.46;103340;1302;24437;-25
2022/03/22 06:00:38;;;;;;;60.10;21.50;;;;;;;-0.69;67.78;101506.23;103510;1300;24363;-25
2022/03/22 06:03:03;;;;;;;54.10;22.40;;;;;;;-0.61;68.04;101506.17;103510;1303;24212;-25
2022/03/22 06:05:29;;;;;;;69.10;22.90;;;;;;;-0.46;68.90;101504.95;103536;1300;24256;-29
2022/03/22 06:07:55;;;;;;;41.70;17.80;;;;;;;-0.26;68.63;101507.14;103532;1300;24368;-27
2022/03/22 06:10:21;;;;;;;78.20;25.80;;;;;;;0.03;67.81;101508.70;103562;1300;24184;-28
2022/03/22 06:12:49;;;;;;;58.10;20.90;;;;;;;0.26;67.01;101510.36;103630;1301;24225;-28
2022/03/22 06:15:16;;;;;;;66.30;21.50;;;;;;;0.50;67.17;101510.17;103397;1302;25099;-30
2022/03/22 06:17:46;;;;;;;65.40;20.50;;;;;;;0.71;65.90;101508.73;103540;1302;24173;-30
2022/03/22 06:20:13;;;;;;;69.20;22.30;;;;;;;0.91;65.61;101510.07;103545;1302;24305;-28
2022/03/22 06:22:39;;;;;;;66.40;22.80;;;;;;;1.17;65.40;101502.88;103613;1301;24351;-29
2022/03/22 06:25:05;;;;;;;60.40;26.50;;;;;;;1.39;64.66;101508.17;103537;1302;24310;-25
2022/03/22 06:27:35;;;;;;;49.10;21.30;;;;;;;1.60;64.03;101507.16;103509;1303;24246;-25
2022/03/22 06:30:04;;;;;;;51.00;19.90;;;;;;;1.88;64.26;101509.82;103587;1303;24218;-28
2022/03/22 06:32:30;;;;;;;50.30;20.90;;;;;;;2.10;63.29;101508.00;103556;1300;24193;-28
2022/03/22 06:34:55;;;;;;;56.90;21.00;;;;;;;2.34;63.22;101508.89;103502;1302;24252;-25
2022/03/22 06:37:21;;;;;;;51.50;21.00;;;;;;;2.54;63.02;101509.27;103530;1301;24246;-28
2022/03/22 06:39:49;;;;;;;52.90;20.40;;;;;;;2.84;62.86;101507.79;103493;1302;22670;-24
2022/03/22 06:42:15;;;;;;;49.60;20.10;;;;;;;3.09;62.16;101507.27;103496;1302;25135;-24
2022/03/22 06:44:41;;;;;;;54.30;22.80;;;;;;;3.32;61.88;101507.90;103287;1302;24249;-28
2022/03/22 06:47:07;;;;;;;50.40;21.70;;;;;;;3.62;61.58;101508.27;103597;1302;24671;-28
2022/03/22 06:49:33;;;;;;;67.30;23.60;;;;;;;3.90;59.69;101511.42;103568;1303;22659;-24
2022/03/22 06:51:58;;;;;;;54.70;23.50;;;;;;;4.18;59.14;101513.11;103510;1300;24244;-25
2022/03/22 06:54:25;;;;;;;47.10;20.60;;;;;;;4.39;57.48;101517.88;103480;1301;24214;-28
2022/03/22 06:56:51;;;;;;;44.10;20.50;;;;;;;4.63;56.30;101514.27;103531;1302;24246;-24
2022/03/22 06:59:16;;;;;;;44.40;20.40;;;;;;;4.76;55.82;101515.69;103548;1302;24274;-28
2022/03/22 07:01:42;;;;;;;47.70;20.80;;;;;;;4.86;55.83;101513.90;103570;1302;24299;-30
2022/03/22 07:04:08;;;;;;;58.80;23.10;;;;;;;4.95;55.24;101512.41;103591;1300;24365;-25
2022/03/22 07:06:34;;;;;;;38.90;20.10;;;;;;;4.98;54.60;101513.77;103525;1301;24301;-25
2022/03/22 07:08:59;;;;;;;48.60;21.40;;;;;;;4.93;54.66;101512.35;103532;1301;24283;-25
2022/03/22 07:13:54;;;;;;;41.70;22.30;;;;;;;5.16;54.64;101514.11;103636;1300;24336;-29
2022/03/22 07:16:20;;;;;;;45.20;20.00;;;;;;;5.34;53.91;101507.64;103556;1302;24356;-24
2022/03/22 07:18:45;;;;;;;41.80;20.90;;;;;;;5.55;53.66;101508.61;103561;1301;24348;-28
2022/03/22 07:21:11;;;;;;;36.40;18.40;;;;;;;5.81;53.67;101510.08;103568;1302;24230;-28
2022/03/22 07:23:38;;;;;;;48.00;21.30;;;;;;;6.11;52.93;101511.73;103542;1301;24308;-25
2022/03/22 07:26:04;;;;;;;41.30;19.50;;;;;;;6.51;53.06;101512.41;103563;1300;24294;-24
2022/03/22 07:28:29;;;;;;;36.00;17.50;;;;;;;6.88;50.59;101511.02;103580;1302;26132;-28
2022/03/22 07:30:55;;;;;;;42.90;18.60;;;;;;;7.24;49.26;101510.61;103583;1300;24214;-25
2022/03/22 07:33:21;;;;;;;39.60;17.90;;;;;;;7.63;49.34;101514.09;103553;1301;24443;-25
2022/03/22 07:35:47;;;;;;;36.20;18.10;;;;;;;7.88;47.85;101512.36;103543;1303;24233;-29
2022/03/22 07:38:12;;;;;;;42.30;17.80;;;;;;;8.09;47.04;101512.77;103468;1302;24188;-28
2022/03/22 07:40:39;;;;;;;28.90;16.80;;;;;;;8.40;46.96;101516.17;103514;1300;22499;-28
2022/03/22 07:43:05;;;;;;;41.10;17.80;;;;;;;8.63;45.87;101514.23;103549;1303;22551;-29
2022/03/22 07:45:31;;;;;;;41.50;18.30;;;;;;;8.90;46.72;101517.38;103463;1302;23960;-29
2022/03/22 07:47:57;;;;;;;27.10;17.50;;;;;;;9.24;45.67;101512.79;103612;1300;24244;-28
2022/03/22 07:55:22;;;;;;;35.30;17.80;;;;;;;9.97;42.73;101510.17;103754;1300;22499;-27
2022/03/22 07:57:47;;;;;;;33.70;17.60;;;;;;;10.17;41.80;101508.15;103562;1302;22635;-28
2022/03/22 08:00:14;;;;;;;40.40;18.30;;;;;;;10.47;41.92;101510.75;103512;1300;22510;-26
2022/03/22 08:02:46;;;;;;;30.30;17.90;;;;;;;10.70;40.71;101506.11;103518;1301;22840;-28
2022/03/22 08:05:12;;;;;;;33.80;19.50;;;;;;;10.95;40.89;101511.27;103590;1301;22661;-25
2022/03/22 08:07:38;;;;;;;36.70;19.30;;;;;;;11.09;40.57;101510.25;103500;1302;22798;-28
2022/03/22 08:10:04;;;;;;;34.10;17.70;;;;;;;11.34;40.09;101505.63;103629;1300;22499;-25
2022/03/22 08:12:30;;;;;;;37.10;17.60;;;;;;;11.51;39.93;101504.93;103525;1300;24242;-28
2022/03/22 08:14:56;;;;;;;31.30;18.60;;;;;;;11.76;39.28;101504.41;103628;1301;24276;-29
2022/03/22 08:17:23;;;;;;;38.70;22.00;;;;;;;12.07;39.06;101506.98;103511;1300;24214;-25
2022/03/22 08:19:49;;;;;;;39.50;17.20;;;;;;;12.48;38.14;101504.99;103541;1303;24256;-29
2022/03/22 08:22:15;;;;;;;32.20;14.70;;;;;;;12.84;37.84;101504.18;103512;1303;24364;-27
2022/03/22 08:24:41;;;;;;;25.30;15.60;;;;;;;13.02;33.81;101502.10;103453;1302;24246;-28
2022/03/22 08:27:07;;;;;;;46.50;19.60;;;;;;;13.34;36.30;101493.17;103462;1303;24173;-25
2022/03/22 08:29:35;;;;;;;25.30;15.00;;;;;;;13.78;35.03;101492.21;103549;1300;24225;-28
2022/03/22 08:32:01;;;;;;;26.10;14.20;;;;;;;14.14;34.91;101490.64;103592;1300;24211;-24
2022/03/22 08:34:27;;;;;;;24.10;14.10;;;;;;;14.47;33.85;101489.88;103511;1303;24215;-28
2022/03/22 08:36:54;;;;;;;22.40;13.00;;;;;;;14.74;32.46;101488.10;103552;1300;24256;-28
2022/03/22 08:39:20;;;;;;;23.80;15.10;;;;;;;14.92;31.02;101487.96;103520;1303;24276;-25
2022/03/22 08:41:47;;;;;;;29.30;14.60;;;;;;;14.93;30.46;101487.81;103534;1303;24230;-25
2022/03/22 08:44:13;;;;;;;20.60;12.50;;;;;;;15.16;31.07;101492.19;103552;1300;24456;-25
2022/03/22 08:46:38;;;;;;;23.10;13.30;;;;;;;15.53;29.71;101487.08;103493;1303;23921;-25
2022/03/22 08:49:05;;;;;;;22.00;11.70;;;;;;;15.80;29.59;101486.47;103557;1303;22696;-25
2022/03/22 08:51:31;;;;;;;22.20;13.20;;;;;;;15.85;27.72;101485.76;103554;1301;24364;-28
2022/03/22 08:53:56;;;;;;;31.40;14.50;;;;;;;16.07;28.54;101483.08;103576;1300;24233;-25
2022/03/22 08:56:22;;;;;;;38.70;13.50;;;;;;;16.21;27.12;101483.69;103506;1302;24215;-23
2022/03/22 08:58:52;;;;;;;25.50;12.80;;;;;;;16.51;27.35;101483.98;103448;1302;24238;-25
2022/03/22 09:01:22;;;;;;;18.50;10.80;;;;;;;16.74;27.29;101479.27;103565;1300;24311;-28
2022/03/22 09:06:07;;;;;;;19.50;13.30;;;;;;;16.69;26.60;101479.66;103528;1300;24426;-27
2022/03/22 09:06:33;;;;;;;21.20;13.80;;;;;;;16.80;26.92;101471.80;103592;1303;24291;-26
2022/03/22 09:08:58;;;;;;;19.40;12.10;;;;;;;17.01;27.25;101472.04;103543;1301;24346;-28
2022/03/22 09:11:26;;;;;;;22.50;13.50;;;;;;;17.23;27.26;101467.67;103449;1302;26128;-25
2022/03/22 09:13:54;;;;;;;46.40;15.70;;;;;;;17.26;25.17;101464.77;103760;1301;24222;-30
2022/03/22 09:16:21;;;;;;;18.50;11.30;;;;;;;17.39;25.52;101467.31;103569;1300;24376;-25
2022/03/22 09:18:48;;;;;;;16.40;10.50;;;;;;;17.41;24.85;101463.79;103665;1300;24173;-25
2022/03/22 09:21:15;;;;;;;24.90;12.70;;;;;;;17.54;25.41;101458.04;103494;1302;22635;-29
2022/03/22 09:23:41;;;;;;;26.60;13.00;;;;;;;17.70;25.54;101462.17;103531;1302;22530;-28
2022/03/22 09:26:06;;;;;;;20.30;13.20;;;;;;;17.73;24.40;101458.55;103270;1303;24234;-25
2022/03/22 09:28:32;;;;;;;20.30;12.40;;;;;;;17.54;24.00;101456.88;103663;1301;24332;-26
2022/03/22 09:30:58;;;;;;;15.40;9.70;;;;;;;17.66;24.77;101453.91;103544;1300;24189;-25
2022/03/22 09:33:24;;;;;;;23.40;12.20;;;;;;;17.74;24.35;101450.11;103526;1300;22511;-28
2022/03/22 09:35:53;;;;;;;15.40;8.40;;;;;;;17.97;24.63;101447.31;103580;1300;24246;-25
2022/03/22 09:38:19;;;;;;;15.30;9.20;;;;;;;18.12;23.52;101446.27;103600;1302;23922;-28
2022/03/22 09:40:45;;;;;;;10.40;8.50;;;;;;;18.48;23.48;101445.17;103590;1300;24231;-28
2022/03/22 09:43:11;;;;;;;19.60;8.30;;;;;;;18.54;22.35;101441.64;103532;1302;24211;-25
2022/03/22 09:45:37;;;;;;;15.90;8.30;;;;;;;18.62;23.22;101443.38;103490;1302;24310;-28
2022/03/22 09:48:04;;;;;;;11.10;7.10;;;;;;;18.83;22.68;101439.00;103535;1301;23934;-28
2022/03/22 09:52:59;;;;;;;11.30;8.10;;;;;;;19.09;22.40;101436.28;103595;1302;25340;-24
2022/03/22 09:55:28;;;;;;;11.20;7.80;;;;;;;19.19;22.79;101437.12;103520;1303;24347;-25
2022/03/22 09:57:54;;;;;;;11.30;7.20;;;;;;;19.21;21.86;101437.84;103607;1300;24278;-28
2022/03/22 10:00:19;;;;;;;9.70;7.10;;;;;;;19.40;22.13;101434.30;103571;1301;24709;-25
2022/03/22 10:02:45;;;;;;;12.20;8.70;;;;;;;19.60;21.36;101433.86;103575;1302;24255;-25
2022/03/22 10:05:18;;;;;;;9.90;6.80;;;;;;;19.71;21.00;101430.92;103520;1300;24305;-29
2022/03/22 10:07:43;;;;;;;11.20;8.60;;;;;;;19.82;21.00;101431.91;103542;1302;24222;-29
2022/03/22 10:10:09;;;;;;;13.60;8.60;;;;;;;19.82;21.02;101429.44;103448;1302;24234;-29
2022/03/22 10:12:35;;;;;;;12.00;8.60;;;;;;;19.91;20.45;101428.60;103500;1303;24295;-28
2022/03/22 10:15:06;;;;;;;11.10;7.60;;;;;;;19.82;20.72;101426.38;103575;1300;24263;-29
2022/03/22 10:17:32;;;;;;;31.50;18.40;;;;;;;19.62;20.58;101425.78;103610;1300;24382;-25
2022/03/22 10:19:58;;;;;;;39.50;22.30;;;;;;;19.80;20.81;101427.20;103580;1300;24282;-25
2022/03/22 10:22:24;;;;;;;46.20;29.30;;;;;;;19.85;19.99;101425.16;103587;1302;24250;-28
2022/03/22 10:24:52;;;;;;;32.30;16.70;;;;;;;20.03;20.23;101419.64;103532;1302;22816;-25
2022/03/22 10:27:19;;;;;;;21.70;15.10;;;;;;;19.89;19.54;101423.61;103647;1303;24445;-28
2022/03/22 10:29:45;;;;;;;31.70;21.50;;;;;;;20.03;20.01;101421.14;103578;1303;22768;-25
2022/03/22 10:32:11;;;;;;;14.90;8.30;;;;;;;20.30;19.82;101422.02;103625;1303;24311;-28
2022/03/22 10:34:37;;;;;;;13.10;9.60;;;;;;;20.26;19.61;101424.75;103522;1300;24265;-28
2022/03/22 10:37:03;;;;;;;13.30;10.30;;;;;;;20.42;19.58;101420.75;103544;1302;24503;-28
2022/03/22 10:39:28;;;;;;;10.50;8.20;;;;;;;20.41;19.53;101420.20;103591;1303;24348;-25
2022/03/22 10:42:03;;;;;;;28.60;11.70;;;;;;;20.31;19.60;101420.34;103545;1303;24173;-28
2022/03/22 10:44:34;;;;;;;12.70;8.10;;;;;;;20.46;19.41;101413.52;103581;1300;24261;-28
2022/03/22 10:47:02;;;;;;;11.00;8.60;;;;;;;20.47;19.59;101415.08;103558;1302;22514;-28
2022/03/22 10:49:28;;;;;;;12.00;9.60;;;;;;;20.59;19.30;101410.20;103543;1300;24243;-25
2022/03/22 10:51:56;;;;;;;11.90;9.40;;;;;;;20.70;19.33;101402.66;103539;1302;24296;-28
2022/03/22 10:54:22;;;;;;;13.70;10.20;;;;;;;20.55;18.97;101408.92;103605;1300;24342;-25
2022/03/22 10:56:49;;;;;;;29.00;11.60;;;;;;;20.51;19.28;101405.63;103643;1300;24319;-24
2022/03/22 10:59:17;;;;;;;12.30;8.20;;;;;;;20.54;19.47;101403.02;103584;1302;24321;-28
2022/03/22 11:01:44;;;;;;;11.90;8.80;;;;;;;20.79;18.82;101400.06;103534;1300;24297;-28
2022/03/22 11:04:10;;;;;;;12.80;8.30;;;;;;;20.61;18.65;101397.65;103609;1303;24249;-28
2022/03/22 11:06:37;;;;;;;17.10;10.20;;;;;;;20.59;18.76;101396.73;103498;1303;24369;-25
2022/03/22 11:09:03;;;;;;;10.50;8.70;;;;;;;20.69;18.84;101392.20;103570;1300;24245;-28
2022/03/22 11:11:31;;;;;;;14.50;9.10;;;;;;;20.86;19.02;101389.33;103542;1300;24371;-24
2022/03/22 11:13:57;;;;;;;13.90;10.70;;;;;;;21.18;19.17;101383.89;103541;1300;25847;-28
2022/03/22 11:16:24;;;;;;;19.10;8.60;;;;;;;21.43;18.91;101382.81;103567;1300;22591;-25
2022/03/22 11:18:50;;;;;;;14.70;11.30;;;;;;;21.57;18.94;101380.40;103567;1300;25460;-25
2022/03/22 11:21:18;;;;;;;23.30;9.10;;;;;;;21.79;18.80;101375.23;103561;1302;24371;-25
2022/03/22 11:23:44;;;;;;;15.60;9.90;;;;;;;21.51;18.36;101375.13;103596;1303;24236;-24
2022/03/22 11:26:15;;;;;;;8.90;7.50;;;;;;;21.55;18.58;101372.38;103532;1303;24276;-28
2022/03/22 11:28:41;;;;;;;11.30;7.20;;;;;;;21.57;18.73;101370.14;103425;1302;22867;-28
2022/03/22 11:31:09;;;;;;;17.40;9.80;;;;;;;21.71;18.38;101367.18;103510;1300;24368;-28